Panda — PBCS — position and weather

sailwx.info

Track history (hours):
 
Tides and Currents Weather Stations Pressure Air Temp Water Temp Dewpoint Dewpoint Depression Visibility Wind Speed Wind Dir Waves Ship Positions

Panda

Last reported at 2015-Jan-31 05:33 UTC. Time now 2015-Jan-31 07:08 UTC.
Position N 53°31' E 005°14'.

Length 89 m; draft 4.3 m.

Type: Cargo ship. MMSI: 245014000.

Date/timePositionNaut miles runAvg speedWind from/ knotsBaromVisibWave heightAir tempDewpointWater temp
2015-Jan-31 05:33N 53°31' E 005°14'1010.3
2015-Jan-31 04:33N 53°27' E 004°58'3510.1
2015-Jan-31 01:06N 52°60' E 004°22'610.2
2015-Jan-31 00:31N 52°54' E 004°17'1010.1
2015-Jan-30 23:33N 52°46' E 004°10'10 9.7
2015-Jan-30 22:33N 52°38' E 004°01'18 8.5
2015-Jan-30 20:26N 52°20' E 003°52'7 8.1
2015-Jan-30 19:33N 52°13' E 003°54'9 8.6
2015-Jan-30 18:33N 52°05' E 003°57'10 9.9
2015-Jan-30 17:33N 51°58' E 004°08'1111.1
2015-Jan-30 16:33N 51°54' E 004°25'1 1.3
2015-Jan-30 15:33N 51°54' E 004°28'0 0.0
2015-Jan-30 14:33N 51°54' E 004°28'0 0.0
2015-Jan-30 13:27N 51°54' E 004°28'0 0.0
2015-Jan-30 12:33N 51°54' E 004°28'2 2.3
2015-Jan-30 11:33N 51°54' E 004°31'8 7.6
2015-Jan-30 10:34N 51°49' E 004°41'9 9.4
2015-Jan-30 09:33N 51°50' E 004°56'10 9.9
2015-Jan-30 08:34N 51°49' E 005°12'9 8.6
2015-Jan-30 07:34N 51°51' E 005°25'10 9.5
2015-Jan-30 06:32N 51°54' E 005°40'20 9.2
2015-Jan-30 04:25N 51°50' E 006°11'  
2015-Jan-25 22:29N 51°52' E 005°50'15 6.8
2015-Jan-25 20:19N 51°52' E 005°26'5 6.8
2015-Jan-25 19:33N 51°48' E 005°21'6 6.2
2015-Jan-25 18:33N 51°49' E 005°11'7 6.5
2015-Jan-25 17:32N 51°49' E 005°01'7 7.5
2015-Jan-25 16:33N 51°49' E 004°48'7 6.6
2015-Jan-25 15:24N 51°53' E 004°38'6 6.7
2015-Jan-25 14:33N 51°55' E 004°29'1 1.2
2015-Jan-25 13:33N 51°54' E 004°28'5 5.0
2015-Jan-25 12:33N 51°54' E 004°20'8 7.8
2015-Jan-25 11:33N 51°58' E 004°09'7 7.1
2015-Jan-25 10:31N 51°59' E 003°57'6510.6
2015-Jan-25 04:23N 51°32' E 002°21'1011.7
2015-Jan-25 03:31N 51°24' E 002°12'1611.4
2015-Jan-25 02:06N 51°11' E 001°57'610.6
2015-Jan-25 01:33N 51°07' E 001°50'10 9.6
2015-Jan-25 00:28N 50°60' E 001°38'  
Track history (hours):
 
Tides and Currents Weather Stations Pressure Air Temp Water Temp Dewpoint Dewpoint Depression Visibility Wind Speed Wind Dir Waves Ship Positions

Panda

Last reported at 2015-Jan-31 05:33 UTC. Time now 2015-Jan-31 07:08 UTC.
Position N 53°31' E 005°14'.

Length 89 m; draft 4.3 m.

Type: Cargo ship. MMSI: 245014000.

Date/timePositionNaut miles runAvg speedWind from/ knotsBaromVisibWave heightAir tempDewpointWater temp
2015-Jan-31 05:33N 53°31' E 005°14'1010.3
2015-Jan-31 04:33N 53°27' E 004°58'3510.1
2015-Jan-31 01:06N 52°60' E 004°22'610.2
2015-Jan-31 00:31N 52°54' E 004°17'1010.1
2015-Jan-30 23:33N 52°46' E 004°10'10 9.7
2015-Jan-30 22:33N 52°38' E 004°01'18 8.5
2015-Jan-30 20:26N 52°20' E 003°52'7 8.1
2015-Jan-30 19:33N 52°13' E 003°54'9 8.6
2015-Jan-30 18:33N 52°05' E 003°57'10 9.9
2015-Jan-30 17:33N 51°58' E 004°08'1111.1
2015-Jan-30 16:33N 51°54' E 004°25'1 1.3
2015-Jan-30 15:33N 51°54' E 004°28'0 0.0
2015-Jan-30 14:33N 51°54' E 004°28'0 0.0
2015-Jan-30 13:27N 51°54' E 004°28'0 0.0
2015-Jan-30 12:33N 51°54' E 004°28'2 2.3
2015-Jan-30 11:33N 51°54' E 004°31'8 7.6
2015-Jan-30 10:34N 51°49' E 004°41'9 9.4
2015-Jan-30 09:33N 51°50' E 004°56'10 9.9
2015-Jan-30 08:34N 51°49' E 005°12'9 8.6
2015-Jan-30 07:34N 51°51' E 005°25'10 9.5
2015-Jan-30 06:32N 51°54' E 005°40'20 9.2
2015-Jan-30 04:25N 51°50' E 006°11'  
2015-Jan-25 22:29N 51°52' E 005°50'15 6.8
2015-Jan-25 20:19N 51°52' E 005°26'5 6.8
2015-Jan-25 19:33N 51°48' E 005°21'6 6.2
2015-Jan-25 18:33N 51°49' E 005°11'7 6.5
2015-Jan-25 17:32N 51°49' E 005°01'7 7.5
2015-Jan-25 16:33N 51°49' E 004°48'7 6.6
2015-Jan-25 15:24N 51°53' E 004°38'6 6.7
2015-Jan-25 14:33N 51°55' E 004°29'1 1.2
2015-Jan-25 13:33N 51°54' E 004°28'5 5.0
2015-Jan-25 12:33N 51°54' E 004°20'8 7.8
2015-Jan-25 11:33N 51°58' E 004°09'7 7.1
2015-Jan-25 10:31N 51°59' E 003°57'6510.6
2015-Jan-25 04:23N 51°32' E 002°21'1011.7
2015-Jan-25 03:31N 51°24' E 002°12'1611.4
2015-Jan-25 02:06N 51°11' E 001°57'610.6
2015-Jan-25 01:33N 51°07' E 001°50'10 9.6
2015-Jan-25 00:28N 50°60' E 001°38'  

Dump ship's entire track history